^^
B2 Weather Station Historical Data
Daily Summary for January 4, 2018 Units:  English    Metric   Both
Daily Weekly Monthly Yearly Custom
  High: Low: Average:
Temperature: 8.3 °F -4.8 °F 0.8 °F
Dew Point: -0.1 °F -9.1 °F -4.8 °F
Humidity: 81% 67% 77%
Wind Speed: 13.8mph 2.3mph 9.3mph
Wind Gust: 13.8mph - -
Wind- - WNW
Pressure: 30.38 in 30.20 in -
Precipitation: 0.00 in    
Historical Graphs
 
 
Tabular Data for January 4, 2018
Time Temperature Dew Point Pressure Wind Wind Speed Wind Gust Humidity Rainfall Rate (Hourly) solar
00:02 1.4 °F -3.9 °F 30.20 in NW 8.1 mph 8.1 mph 78% 0.00 in 0.0 W/m2
00:05 1.1 °F -4.2 °F 30.21 in WNW 10.4 mph 10.4 mph 78% 0.00 in 0.0 W/m2
00:10 0.9 °F -4.4 °F 30.21 in WNW 10.4 mph 10.4 mph 78% 0.00 in 0.0 W/m2
00:15 0.8 °F -4.5 °F 30.20 in NW 7.0 mph 7.0 mph 78% 0.00 in 0.0 W/m2
00:16 0.8 °F -4.5 °F 30.20 in NW 9.2 mph 9.2 mph 78% 0.00 in 0.0 W/m2
00:21 0.5 °F -4.7 °F 30.21 in WNW 6.9 mph 6.9 mph 78% 0.00 in 0.0 W/m2
00:22 0.5 °F -4.7 °F 30.21 in WNW 8.1 mph 8.1 mph 78% 0.00 in 0.0 W/m2
00:27 0.4 °F -4.8 °F 30.21 in NW 8.1 mph 8.1 mph 78% 0.00 in 0.0 W/m2
00:28 0.3 °F -4.9 °F 30.21 in WNW 8.1 mph 8.1 mph 78% 0.00 in 0.0 W/m2
00:31 0.2 °F -4.8 °F 30.21 in WNW 8.1 mph 8.1 mph 79% 0.00 in 0.0 W/m2
00:33 0.2 °F -4.8 °F 30.28 in NW 5.8 mph 5.8 mph 79% 0.00 in 0.0 W/m2
00:34 0.2 °F -4.8 °F 30.21 in NW 8.1 mph 8.1 mph 79% 0.00 in 0.0 W/m2
00:35 0.1 °F -4.9 °F 30.21 in WNW 6.9 mph 6.9 mph 79% 0.00 in 0.0 W/m2
00:39 0.0 °F -5.0 °F 30.21 in WNW 7.0 mph 7.0 mph 79% 0.00 in 0.0 W/m2
00:44 -0.1 °F -5.1 °F 30.22 in WNW 8.1 mph 8.1 mph 79% 0.00 in 0.0 W/m2
00:46 -0.1 °F -5.1 °F 30.22 in WNW 8.1 mph 8.1 mph 79% 0.00 in 0.0 W/m2
00:47 -0.1 °F -5.1 °F 30.28 in West 8.1 mph 8.1 mph 79% 0.00 in 0.0 W/m2
00:50 -0.2 °F -5.2 °F 30.22 in WNW 8.1 mph 8.1 mph 79% 0.00 in 0.0 W/m2
00:55 -0.3 °F -5.3 °F 30.22 in WNW 6.9 mph 6.9 mph 79% 0.00 in 0.0 W/m2
00:57 -0.4 °F -5.4 °F 30.22 in WNW 8.1 mph 8.1 mph 79% 0.00 in 0.0 W/m2
01:02 -0.5 °F -5.5 °F 30.22 in WNW 5.8 mph 5.8 mph 79% 0.00 in 0.0 W/m2
01:03 -0.5 °F -5.5 °F 30.22 in WNW 6.9 mph 6.9 mph 79% 0.00 in 0.0 W/m2
01:05 -0.6 °F -5.6 °F 30.22 in WNW 8.1 mph 8.1 mph 79% 0.00 in 0.0 W/m2
01:09 -0.6 °F -5.6 °F 30.22 in WNW 8.1 mph 8.1 mph 79% 0.00 in 0.0 W/m2
01:12 -0.7 °F -5.7 °F 30.22 in WNW 6.0 mph 6.0 mph 79% 0.00 in 0.0 W/m2
01:13 -0.7 °F -5.7 °F 30.28 in WNW 5.0 mph 5.0 mph 79% 0.00 in 0.0 W/m2
01:16 -0.8 °F -5.7 °F 30.22 in WNW 8.1 mph 8.1 mph 79% 0.00 in 0.0 W/m2
01:17 -0.8 °F -5.7 °F 30.28 in NW 8.1 mph 8.1 mph 79% 0.00 in 0.0 W/m2
01:22 -0.9 °F -5.8 °F 30.22 in WNW 5.8 mph 5.8 mph 79% 0.00 in 0.0 W/m2
01:23 -0.9 °F -5.8 °F 30.22 in WNW 8.1 mph 8.1 mph 79% 0.00 in 0.0 W/m2
01:29 -0.9 °F -5.8 °F 30.22 in WNW 6.0 mph 6.0 mph 79% 0.00 in 0.0 W/m2
01:34 -0.9 °F -5.6 °F 30.22 in WNW 5.8 mph 5.8 mph 80% 0.00 in 0.0 W/m2
01:35 -0.9 °F -5.6 °F 30.22 in NW 4.6 mph 4.6 mph 80% 0.00 in 0.0 W/m2
01:38 -0.9 °F -5.6 °F 30.29 in WNW 8.1 mph 8.1 mph 80% 0.00 in 0.0 W/m2
01:40 -0.8 °F -5.5 °F 30.22 in NW 10.4 mph 10.4 mph 80% 0.00 in 0.0 W/m2
01:41 -0.8 °F -5.5 °F 30.22 in NW 8.1 mph 8.1 mph 80% 0.00 in 0.0 W/m2
01:46 -0.8 °F -5.5 °F 30.22 in West 6.0 mph 6.0 mph 80% 0.00 in 0.0 W/m2
01:51 -0.9 °F -5.8 °F 30.22 in WNW 5.8 mph 5.8 mph 79% 0.00 in 0.0 W/m2
01:52 -0.9 °F -5.8 °F 30.22 in NW 6.9 mph 6.9 mph 79% 0.00 in 0.0 W/m2
01:55 -0.9 °F -5.6 °F 30.22 in WNW 9.2 mph 9.2 mph 80% 0.00 in 0.0 W/m2
01:57 -0.9 °F -5.8 °F 30.22 in WNW 5.8 mph 5.8 mph 79% 0.00 in 0.0 W/m2
02:02 -0.9 °F -5.6 °F 30.22 in WNW 8.0 mph 8.0 mph 80% 0.00 in 0.0 W/m2
02:04 -0.9 °F -5.6 °F 30.22 in WNW 8.1 mph 8.1 mph 80% 0.00 in 0.0 W/m2
02:05 -0.9 °F -5.6 °F 30.22 in West 6.9 mph 6.9 mph 80% 0.00 in 0.0 W/m2
02:07 -0.9 °F -5.6 °F 30.22 in WNW 6.9 mph 6.9 mph 80% 0.00 in 0.0 W/m2
02:10 -0.9 °F -5.8 °F 30.22 in West 10.4 mph 10.4 mph 79% 0.00 in 0.0 W/m2
02:11 -0.9 °F -5.8 °F 30.23 in WNW 8.1 mph 8.1 mph 79% 0.00 in 0.0 W/m2
02:13 -0.9 °F -5.8 °F 30.29 in WNW 8.1 mph 8.1 mph 79% 0.00 in 0.0 W/m2
02:16 -0.9 °F -5.8 °F 30.23 in WNW 9.2 mph 9.2 mph 79% 0.00 in 0.0 W/m2
02:18 -1.0 °F -5.9 °F 30.23 in WNW 5.8 mph 5.8 mph 79% 0.00 in 0.0 W/m2
02:21 -1.0 °F -5.9 °F 30.23 in WNW 9.2 mph 9.2 mph 79% 0.00 in 0.0 W/m2
02:26 -1.2 °F -6.1 °F 30.23 in WNW 9.2 mph 9.2 mph 79% 0.00 in 0.0 W/m2
02:27 -1.2 °F -6.1 °F 30.23 in WNW 8.1 mph 8.1 mph 79% 0.00 in 0.0 W/m2
02:28 -1.2 °F -6.1 °F 30.23 in NW 8.1 mph 8.1 mph 79% 0.00 in 0.0 W/m2
02:32 -1.3 °F -6.2 °F 30.23 in WNW 10.4 mph 10.4 mph 79% 0.00 in 0.0 W/m2
02:36 -1.3 °F -6.2 °F 30.23 in WNW 11.5 mph 11.5 mph 79% 0.00 in 0.0 W/m2
02:40 -1.2 °F -6.1 °F 30.23 in WNW 9.2 mph 9.2 mph 79% 0.00 in 0.0 W/m2
02:41 -1.2 °F -6.1 °F 30.23 in NW 9.2 mph 9.2 mph 79% 0.00 in 0.0 W/m2
02:46 -1.3 °F -6.2 °F 30.23 in NW 9.2 mph 9.2 mph 79% 0.00 in 0.0 W/m2
02:51 -1.3 °F -6.2 °F 30.24 in NW 8.0 mph 8.0 mph 79% 0.00 in 0.0 W/m2
02:53 -1.4 °F -6.3 °F 30.24 in WNW 10.4 mph 10.4 mph 79% 0.00 in 0.0 W/m2
02:57 -1.3 °F -6.2 °F 30.24 in NW 10.4 mph 10.4 mph 79% 0.00 in 0.0 W/m2
02:59 -1.3 °F -6.2 °F 30.24 in WNW 11.5 mph 11.5 mph 79% 0.00 in 0.0 W/m2
03:04 -1.5 °F -6.4 °F 30.24 in WNW 9.2 mph 9.2 mph 79% 0.00 in 0.0 W/m2
03:09 -1.6 °F -6.5 °F 30.24 in WNW 11.5 mph 11.5 mph 79% 0.00 in 0.0 W/m2
03:10 -1.7 °F -6.6 °F 30.24 in West 11.5 mph 11.5 mph 79% 0.00 in 0.0 W/m2
03:13 -1.7 °F -6.6 °F 30.24 in WNW 10.4 mph 10.4 mph 79% 0.00 in 0.0 W/m2
03:15 -1.7 °F -6.6 °F 30.24 in WNW 9.2 mph 9.2 mph 79% 0.00 in 0.0 W/m2
03:20 -1.7 °F -6.6 °F 30.24 in NW 9.0 mph 9.0 mph 79% 0.00 in 0.0 W/m2
03:21 -1.7 °F -6.6 °F 30.24 in WNW 9.2 mph 9.2 mph 79% 0.00 in 0.0 W/m2
03:26 -1.6 °F -6.3 °F 30.24 in WNW 9.0 mph 9.0 mph 80% 0.00 in 0.0 W/m2
03:29 -1.6 °F -6.3 °F 30.24 in WNW 7.0 mph 7.0 mph 80% 0.00 in 0.0 W/m2
03:32 -1.6 °F -6.5 °F 30.24 in WNW 11.5 mph 11.5 mph 79% 0.00 in 0.0 W/m2
03:35 -1.7 °F -6.6 °F 30.23 in NW 10.4 mph 10.4 mph 79% 0.00 in 0.0 W/m2
03:37 -1.8 °F -6.7 °F 30.23 in WNW 11.5 mph 11.5 mph 79% 0.00 in 0.0 W/m2
03:42 -1.8 °F -6.7 °F 30.24 in WNW 5.8 mph 5.8 mph 79% 0.00 in 0.0 W/m2
03:47 -1.8 °F -6.7 °F 30.24 in WNW 9.2 mph 9.2 mph 79% 0.00 in 0.0 W/m2
03:48 -1.8 °F -6.7 °F 30.24 in WNW 10.4 mph 10.4 mph 79% 0.00 in 0.0 W/m2
03:51 -1.7 °F -6.6 °F 30.24 in WNW 6.9 mph 6.9 mph 79% 0.00 in 0.0 W/m2
03:55 -1.8 °F -6.7 °F 30.24 in WNW 11.0 mph 11.0 mph 79% 0.00 in 0.0 W/m2
03:56 -1.9 °F -6.8 °F 30.30 in WNW 11.5 mph 11.5 mph 79% 0.00 in 0.0 W/m2
03:58 -1.9 °F -6.8 °F 30.24 in West 10.4 mph 10.4 mph 79% 0.00 in 0.0 W/m2
04:02 -2.0 °F -6.9 °F 30.24 in West 11.5 mph 11.5 mph 79% 0.00 in 0.0 W/m2
04:07 -2.3 °F -7.2 °F 30.24 in WNW 10.4 mph 10.4 mph 79% 0.00 in 0.0 W/m2
04:09 -2.4 °F -7.3 °F 30.24 in WNW 9.2 mph 9.2 mph 79% 0.00 in 0.0 W/m2
04:14 -2.5 °F -7.4 °F 30.23 in NW 10.4 mph 10.4 mph 79% 0.00 in 0.0 W/m2
04:16 -2.5 °F -7.4 °F 30.23 in NW 10.4 mph 10.4 mph 79% 0.00 in 0.0 W/m2
04:19 -2.4 °F -7.1 °F 30.24 in NW 10.4 mph 10.4 mph 80% 0.00 in 0.0 W/m2
04:24 -2.4 °F -7.1 °F 30.24 in WNW 9.2 mph 9.2 mph 80% 0.00 in 0.0 W/m2
04:25 -2.4 °F -7.1 °F 30.24 in WNW 9.2 mph 9.2 mph 80% 0.00 in 0.0 W/m2
04:28 -2.4 °F -7.1 °F 30.24 in WNW 9.2 mph 9.2 mph 80% 0.00 in 0.0 W/m2
04:32 -2.3 °F -7.0 °F 30.24 in West 9.2 mph 9.2 mph 80% 0.00 in 0.0 W/m2
04:36 -2.3 °F -7.0 °F 30.24 in WNW 10.4 mph 10.4 mph 80% 0.00 in 0.0 W/m2
04:41 -2.3 °F -7.0 °F 30.24 in WNW 9.2 mph 9.2 mph 80% 0.00 in 0.0 W/m2
04:46 -2.3 °F -7.2 °F 30.24 in WNW 9.2 mph 9.2 mph 79% 0.00 in 0.0 W/m2
04:47 -2.4 °F -7.1 °F 30.24 in NW 8.1 mph 8.1 mph 80% 0.00 in 0.0 W/m2
04:49 -2.4 °F -7.1 °F 30.24 in NW 10.4 mph 10.4 mph 80% 0.00 in 0.0 W/m2
04:52 -2.3 °F -7.0 °F 30.24 in WNW 11.5 mph 11.5 mph 80% 0.00 in 0.0 W/m2
04:57 -2.3 °F -7.0 °F 30.24 in NW 9.2 mph 9.2 mph 80% 0.00 in 0.0 W/m2
04:58 -2.3 °F -7.0 °F 30.24 in NW 11.5 mph 11.5 mph 80% 0.00 in 0.0 W/m2
04:59 -2.3 °F -7.0 °F 30.24 in NW 11.5 mph 11.5 mph 80% 0.00 in 0.0 W/m2
05:04 -2.3 °F -7.0 °F 30.24 in NW 11.5 mph 11.5 mph 80% 0.00 in 0.0 W/m2
05:06 -2.4 °F -7.1 °F 30.24 in NW 10.4 mph 10.4 mph 80% 0.00 in 0.0 W/m2
05:11 -2.4 °F -7.1 °F 30.24 in NW 10.4 mph 10.4 mph 80% 0.00 in 0.0 W/m2
05:12 -2.4 °F -7.1 °F 30.24 in NW 6.9 mph 6.9 mph 80% 0.00 in 0.0 W/m2
05:17 -2.3 °F -7.0 °F 30.24 in WNW 10.0 mph 10.0 mph 80% 0.00 in 0.0 W/m2
05:19 -2.3 °F -7.0 °F 30.25 in WNW 8.1 mph 8.1 mph 80% 0.00 in 0.0 W/m2
05:24 -2.6 °F -7.5 °F 30.25 in WNW 8.0 mph 8.0 mph 79% 0.00 in 0.0 W/m2
05:26 -2.8 °F -7.7 °F 30.25 in WNW 9.2 mph 9.2 mph 79% 0.00 in 0.0 W/m2
05:31 -3.2 °F -8.1 °F 30.25 in WNW 6.9 mph 6.9 mph 79% 0.00 in 0.0 W/m2
05:33 -3.3 °F -8.2 °F 30.25 in NW 9.2 mph 9.2 mph 79% 0.00 in 0.0 W/m2
05:36 -3.4 °F -8.0 °F 30.25 in West 8.1 mph 8.1 mph 80% 0.00 in 0.0 W/m2
05:43 -3.5 °F -8.1 °F 30.25 in NW 5.8 mph 5.8 mph 80% 0.00 in 0.0 W/m2
05:47 -3.6 °F -8.2 °F 30.25 in WNW 5.8 mph 5.8 mph 80% 0.00 in 0.0 W/m2
05:49 -3.5 °F -8.1 °F 30.25 in NW 6.9 mph 6.9 mph 80% 0.00 in 0.0 W/m2
05:54 -3.4 °F -7.8 °F 30.25 in WNW 6.9 mph 6.9 mph 81% 0.00 in 0.0 W/m2
05:59 -3.2 °F -7.6 °F 30.25 in WNW 10.4 mph 10.4 mph 81% 0.00 in 0.0 W/m2
06:02 -3.2 °F -7.8 °F 30.25 in West 8.1 mph 8.1 mph 80% 0.00 in 0.0 W/m2
06:07 -3.5 °F -8.1 °F 30.26 in WNW 9.2 mph 9.2 mph 80% 0.00 in 0.0 W/m2
06:09 -3.6 °F -8.2 °F 30.26 in WNW 8.1 mph 8.1 mph 80% 0.00 in 0.0 W/m2
06:14 -3.8 °F -8.4 °F 30.26 in NW 9.2 mph 9.2 mph 80% 0.00 in 0.0 W/m2
06:15 -3.9 °F -8.5 °F 30.26 in WNW 9.2 mph 9.2 mph 80% 0.00 in 0.0 W/m2
06:16 -3.9 °F -8.5 °F 30.26 in West 8.1 mph 8.1 mph 80% 0.00 in 0.0 W/m2
06:21 -4.1 °F -8.7 °F 30.27 in WNW 9.2 mph 9.2 mph 80% 0.00 in 0.0 W/m2
06:26 -4.1 °F -8.5 °F 30.27 in West 8.1 mph 8.1 mph 81% 0.00 in 0.0 W/m2
06:31 -4.1 °F -8.5 °F 30.27 in WNW 10.4 mph 10.4 mph 81% 0.00 in 0.0 W/m2
06:35 -4.1 °F -8.5 °F 30.27 in West 10.4 mph 10.4 mph 81% 0.00 in 0.0 W/m2
06:37 -4.1 °F -8.5 °F 30.27 in NW 8.0 mph 8.0 mph 81% 0.00 in 0.0 W/m2
06:38 -4.1 °F -8.5 °F 30.27 in NW 10.4 mph 10.4 mph 81% 0.00 in 0.0 W/m2
06:42 -4.1 °F -8.5 °F 30.27 in WNW 9.2 mph 9.2 mph 81% 0.00 in 0.0 W/m2
06:43 -4.1 °F -8.5 °F 30.27 in NW 10.4 mph 10.4 mph 81% 0.00 in 0.0 W/m2
06:48 -4.1 °F -8.5 °F 30.34 in WNW 10.4 mph 10.4 mph 81% 0.00 in 0.0 W/m2
06:50 -4.1 °F -8.5 °F 30.27 in WNW 11.5 mph 11.5 mph 81% 0.00 in 0.0 W/m2
06:53 -4.1 °F -8.5 °F 30.33 in WNW 9.2 mph 9.2 mph 81% 0.00 in 0.0 W/m2
06:54 -4.1 °F -8.5 °F 30.27 in WNW 11.5 mph 11.5 mph 81% 0.00 in 0.0 W/m2
06:59 -4.1 °F -8.5 °F 30.27 in WNW 11.5 mph 11.5 mph 81% 0.00 in 0.0 W/m2
07:03 -4.2 °F -8.6 °F 30.27 in WNW 9.2 mph 9.2 mph 81% 0.00 in 0.0 W/m2
07:08 -4.3 °F -8.7 °F 30.28 in West 9.0 mph 9.0 mph 81% 0.00 in 0.0 W/m2
07:09 -4.4 °F -8.8 °F 30.28 in WNW 10.4 mph 10.4 mph 81% 0.00 in 0.0 W/m2
07:10 -4.4 °F -8.8 °F 30.27 in WNW 11.5 mph 11.5 mph 81% 0.00 in 0.0 W/m2
07:12 -4.4 °F -8.8 °F 30.27 in WNW 11.5 mph 11.5 mph 81% 0.00 in 0.0 W/m2
07:16 -4.5 °F -8.8 °F 30.28 in WNW 8.0 mph 8.0 mph 81% 0.00 in 5.0 W/m2
07:21 -4.7 °F -9.0 °F 30.28 in WNW 8.1 mph 8.1 mph 81% 0.00 in 7.0 W/m2
07:22 -4.7 °F -9.0 °F 30.28 in WNW 8.1 mph 8.1 mph 81% 0.00 in 7.0 W/m2
07:27 -4.8 °F -9.1 °F 30.28 in NW 9.2 mph 9.2 mph 81% 0.00 in 11.0 W/m2
07:28 -4.8 °F -9.1 °F 30.28 in WNW 9.2 mph 9.2 mph 81% 0.00 in 11.0 W/m2
07:33 -4.8 °F -9.1 °F 30.28 in WNW 8.1 mph 8.1 mph 81% 0.00 in 12.0 W/m2
07:34 -4.8 °F -9.1 °F 30.28 in WNW 8.1 mph 8.1 mph 81% 0.00 in 14.0 W/m2
07:39 -4.8 °F -9.1 °F 30.28 in WNW 9.2 mph 9.2 mph 81% 0.00 in 19.0 W/m2
07:40 -4.8 °F -9.1 °F 30.28 in NW 9.2 mph 9.2 mph 81% 0.00 in 23.0 W/m2
07:41 -4.7 °F -9.0 °F 30.34 in WNW 9.2 mph 9.2 mph 81% 0.00 in 25.0 W/m2
07:42 -4.8 °F -9.1 °F 30.28 in WNW 6.9 mph 6.9 mph 81% 0.00 in 26.0 W/m2
07:47 -4.7 °F -9.0 °F 30.28 in WNW 5.8 mph 5.8 mph 81% 0.00 in 40.0 W/m2
07:52 -4.6 °F -8.9 °F 30.28 in WNW 5.0 mph 5.0 mph 81% 0.00 in 46.0 W/m2
07:57 -4.3 °F -8.7 °F 30.28 in WNW 10.4 mph 10.4 mph 81% 0.00 in 65.0 W/m2
08:02 -4.2 °F -8.6 °F 30.28 in WNW 10.0 mph 10.0 mph 81% 0.00 in 77.0 W/m2
08:07 -4.2 °F -8.8 °F 30.29 in WNW 10.4 mph 10.4 mph 80% 0.00 in 93.0 W/m2
08:13 -4.2 °F -8.8 °F 30.29 in NW 8.1 mph 8.1 mph 80% 0.00 in 107.0 W/m2
08:15 -4.2 °F -8.8 °F 30.35 in WNW 8.1 mph 8.1 mph 80% 0.00 in 114.0 W/m2
08:19 -4.2 °F -8.8 °F 30.29 in NW 9.2 mph 9.2 mph 80% 0.00 in 125.0 W/m2
08:24 -4.1 °F -8.7 °F 30.29 in NW 9.2 mph 9.2 mph 80% 0.00 in 139.0 W/m2
08:25 -4.0 °F -8.6 °F 30.29 in NW 10.4 mph 10.4 mph 80% 0.00 in 142.0 W/m2
08:26 -3.9 °F -8.5 °F 30.29 in NW 8.1 mph 8.1 mph 80% 0.00 in 146.0 W/m2
08:31 -3.8 °F -8.4 °F 30.29 in NW 9.2 mph 9.2 mph 80% 0.00 in 162.0 W/m2
08:34 -3.6 °F -8.2 °F 30.29 in NW 11.5 mph 11.5 mph 80% 0.00 in 174.0 W/m2
08:39 -3.6 °F -8.2 °F 30.29 in NW 11.5 mph 11.5 mph 80% 0.00 in 190.0 W/m2
08:44 -3.5 °F -8.1 °F 30.29 in NW 11.5 mph 11.5 mph 80% 0.00 in 206.0 W/m2
08:46 -3.5 °F -8.1 °F 30.29 in NW 11.5 mph 11.5 mph 80% 0.00 in 211.0 W/m2
08:48 -3.3 °F -7.9 °F 30.29 in WNW 10.4 mph 10.4 mph 80% 0.00 in 216.0 W/m2
08:51 -3.1 °F -7.7 °F 30.30 in WNW 8.1 mph 8.1 mph 80% 0.00 in 225.0 W/m2
08:52 -3.1 °F -7.7 °F 30.30 in NW 9.2 mph 9.2 mph 80% 0.00 in 225.0 W/m2
08:54 -3.0 °F -7.6 °F 30.30 in WNW 8.1 mph 8.1 mph 80% 0.00 in 234.0 W/m2
08:57 -3.0 °F -7.9 °F 30.30 in NW 6.9 mph 6.9 mph 79% 0.00 in 243.0 W/m2
09:02 -2.8 °F -7.7 °F 30.30 in WNW 8.1 mph 8.1 mph 79% 0.00 in 258.0 W/m2
09:07 -2.8 °F -7.7 °F 30.30 in WNW 10.4 mph 10.4 mph 79% 0.00 in 271.0 W/m2
09:12 -2.6 °F -7.5 °F 30.30 in NW 6.9 mph 6.9 mph 79% 0.00 in 281.0 W/m2
09:17 -2.5 °F -7.4 °F 30.30 in NW 10.4 mph 10.4 mph 79% 0.00 in 292.0 W/m2
09:18 -2.5 °F -7.4 °F 30.30 in NW 8.1 mph 8.1 mph 79% 0.00 in 297.0 W/m2
09:23 -2.2 °F -7.1 °F 30.31 in WNW 11.0 mph 11.0 mph 79% 0.00 in 306.0 W/m2
09:25 -2.2 °F -7.1 °F 30.37 in NW 12.0 mph 12.0 mph 79% 0.00 in 309.0 W/m2
09:28 -2.1 °F -7.0 °F 30.31 in NW 11.5 mph 11.5 mph 79% 0.00 in 315.0 W/m2
09:29 -2.1 °F -7.0 °F 30.31 in WNW 11.0 mph 11.0 mph 79% 0.00 in 316.0 W/m2
09:30 -2.0 °F -6.9 °F 30.31 in WNW 11.5 mph 11.5 mph 79% 0.00 in 318.0 W/m2
09:35 -1.7 °F -6.9 °F 30.31 in WNW 12.0 mph 12.0 mph 78% 0.00 in 329.0 W/m2
09:40 -1.4 °F -6.6 °F 30.31 in NW 10.4 mph 10.4 mph 78% 0.00 in 338.0 W/m2
09:44 -1.2 °F -6.4 °F 30.38 in WNW 10.4 mph 10.4 mph 78% 0.00 in 345.0 W/m2
09:45 -1.1 °F -6.3 °F 30.31 in West 11.5 mph 11.5 mph 78% 0.00 in 345.0 W/m2
09:49 -0.9 °F -6.1 °F 30.32 in WNW 11.5 mph 11.5 mph 78% 0.00 in 352.0 W/m2
09:50 -0.9 °F -6.1 °F 30.38 in WNW 8.1 mph 8.1 mph 78% 0.00 in 353.0 W/m2
09:54 -0.7 °F -5.9 °F 30.32 in WNW 9.2 mph 9.2 mph 78% 0.00 in 359.0 W/m2
09:59 -0.5 °F -6.0 °F 30.32 in WNW 11.5 mph 11.5 mph 77% 0.00 in 367.0 W/m2
10:04 -0.3 °F -5.8 °F 30.32 in NW 11.5 mph 11.5 mph 77% 0.00 in 376.0 W/m2
10:09 0.0 °F -5.5 °F 30.32 in WNW 10.4 mph 10.4 mph 77% 0.00 in 383.0 W/m2
10:10 0.0 °F -5.5 °F 30.32 in NW 10.4 mph 10.4 mph 77% 0.00 in 385.0 W/m2
10:11 0.1 °F -5.4 °F 30.32 in WNW 11.5 mph 11.5 mph 77% 0.00 in 387.0 W/m2
10:16 0.3 °F -5.2 °F 30.32 in NW 10.4 mph 10.4 mph 77% 0.00 in 396.0 W/m2
10:18 0.5 °F -5.0 °F 30.31 in NW 10.4 mph 10.4 mph 77% 0.00 in 397.0 W/m2
10:23 0.9 °F -4.6 °F 30.32 in NW 12.7 mph 12.7 mph 77% 0.00 in 406.0 W/m2
10:26 1.0 °F -4.5 °F 30.31 in NW 12.0 mph 12.0 mph 77% 0.00 in 408.0 W/m2
10:31 1.3 °F -4.5 °F 30.31 in NW 10.4 mph 10.4 mph 76% 0.00 in 415.0 W/m2
10:36 1.6 °F -4.2 °F 30.31 in NW 11.5 mph 11.5 mph 76% 0.00 in 424.0 W/m2
10:38 1.7 °F -4.1 °F 30.31 in WNW 11.5 mph 11.5 mph 76% 0.00 in 425.0 W/m2
10:42 1.9 °F -3.9 °F 30.31 in WNW 10.4 mph 10.4 mph 76% 0.00 in 431.0 W/m2
10:44 2.0 °F -3.8 °F 30.31 in WNW 10.4 mph 10.4 mph 76% 0.00 in 432.0 W/m2
10:49 2.2 °F -3.6 °F 30.31 in NW 13.8 mph 13.8 mph 76% 0.00 in 438.0 W/m2
10:53 2.3 °F -3.8 °F 30.30 in NW 11.5 mph 11.5 mph 75% 0.00 in 441.0 W/m2
10:57 2.5 °F -3.6 °F 30.37 in NW 11.5 mph 11.5 mph 75% 0.00 in 446.0 W/m2
10:58 2.5 °F -3.6 °F 30.30 in WNW 10.4 mph 10.4 mph 75% 0.00 in 446.0 W/m2
11:03 2.7 °F -3.4 °F 30.30 in NW 10.4 mph 10.4 mph 75% 0.00 in 454.0 W/m2
11:05 2.8 °F -3.3 °F 30.30 in WNW 10.4 mph 10.4 mph 75% 0.00 in 454.0 W/m2
11:10 3.1 °F -3.0 °F 30.30 in NW 10.4 mph 10.4 mph 75% 0.00 in 457.0 W/m2
11:12 3.2 °F -2.9 °F 30.30 in NW 12.7 mph 12.7 mph 75% 0.00 in 459.0 W/m2
11:17 3.4 °F -3.0 °F 30.30 in NW 12.7 mph 12.7 mph 74% 0.00 in 462.0 W/m2
11:20 3.5 °F -2.9 °F 30.30 in WNW 10.4 mph 10.4 mph 74% 0.00 in 466.0 W/m2
11:24 3.6 °F -2.8 °F 30.29 in NW 11.5 mph 11.5 mph 74% 0.00 in 466.0 W/m2
11:29 4.0 °F -2.4 °F 30.29 in WNW 11.5 mph 11.5 mph 74% 0.00 in 468.0 W/m2
11:31 4.0 °F -2.4 °F 30.36 in NW 12.7 mph 12.7 mph 74% 0.00 in 469.0 W/m2
11:34 4.1 °F -2.6 °F 30.29 in WNW 6.9 mph 6.9 mph 73% 0.00 in 469.0 W/m2
11:39 4.5 °F -2.3 °F 30.29 in NW 5.8 mph 5.8 mph 73% 0.00 in 473.0 W/m2
11:42 4.7 °F -2.1 °F 30.29 in NW 10.4 mph 10.4 mph 73% 0.00 in 475.0 W/m2
11:47 4.9 °F -2.2 °F 30.29 in NW 9.2 mph 9.2 mph 72% 0.00 in 476.0 W/m2
11:52 5.2 °F -1.9 °F 30.29 in NW 6.9 mph 6.9 mph 72% 0.00 in 476.0 W/m2
11:56 5.4 °F -1.7 °F 30.29 in NW 5.8 mph 5.8 mph 72% 0.00 in 476.0 W/m2
11:59 5.5 °F -1.6 °F 30.29 in NW 8.1 mph 8.1 mph 72% 0.00 in 476.0 W/m2
12:04 5.8 °F -1.6 °F 30.29 in NW 11.5 mph 11.5 mph 71% 0.00 in 476.0 W/m2
12:09 6.0 °F -1.4 °F 30.29 in NW 13.8 mph 13.8 mph 71% 0.00 in 476.0 W/m2
12:14 6.3 °F -1.1 °F 30.29 in NW 11.5 mph 11.5 mph 71% 0.00 in 475.0 W/m2
12:17 6.3 °F -1.4 °F 30.29 in NW 11.5 mph 11.5 mph 70% 0.00 in 475.0 W/m2
12:22 6.5 °F -1.2 °F 30.29 in WNW 6.9 mph 6.9 mph 70% 0.00 in 471.0 W/m2
12:23 6.7 °F -0.7 °F 30.29 in WNW 8.1 mph 8.1 mph 71% 0.00 in 471.0 W/m2
12:27 6.9 °F -0.8 °F 30.29 in WNW 10.4 mph 10.4 mph 70% 0.00 in 469.0 W/m2
12:29 7.1 °F -0.6 °F 30.29 in NW 8.1 mph 8.1 mph 70% 0.00 in 468.0 W/m2
12:34 7.3 °F -0.4 °F 30.29 in WNW 8.1 mph 8.1 mph 70% 0.00 in 464.0 W/m2
12:38 7.4 °F -0.3 °F 30.29 in WNW 5.8 mph 5.8 mph 70% 0.00 in 462.0 W/m2
12:39 7.5 °F -0.6 °F 30.29 in WNW 9.2 mph 9.2 mph 69% 0.00 in 462.0 W/m2
12:43 7.5 °F -0.9 °F 30.29 in NW 11.5 mph 11.5 mph 68% 0.00 in 459.0 W/m2
12:45 7.5 °F -0.9 °F 30.29 in NW 6.9 mph 6.9 mph 68% 0.00 in 457.0 W/m2
12:50 7.6 °F -0.8 °F 30.28 in WNW 11.5 mph 11.5 mph 68% 0.00 in 452.0 W/m2
12:51 7.6 °F -0.8 °F 30.28 in WNW 11.5 mph 11.5 mph 68% 0.00 in 452.0 W/m2
12:52 7.6 °F -0.8 °F 30.28 in NW 10.4 mph 10.4 mph 68% 0.00 in 450.0 W/m2
12:56 7.6 °F -0.8 °F 30.28 in WNW 11.5 mph 11.5 mph 68% 0.00 in 448.0 W/m2
13:01 7.5 °F -0.9 °F 30.28 in WNW 11.5 mph 11.5 mph 68% 0.00 in 443.0 W/m2
13:06 7.6 °F -0.5 °F 30.28 in NW 9.2 mph 9.2 mph 69% 0.00 in 438.0 W/m2
13:07 7.6 °F -0.5 °F 30.28 in WNW 9.2 mph 9.2 mph 69% 0.00 in 436.0 W/m2
13:12 7.7 °F -0.7 °F 30.28 in WSW 9.2 mph 9.2 mph 68% 0.00 in 431.0 W/m2
13:13 7.8 °F -0.6 °F 30.28 in West 9.2 mph 9.2 mph 68% 0.00 in 429.0 W/m2
13:18 7.9 °F -0.5 °F 30.35 in WNW 9.2 mph 9.2 mph 68% 0.00 in 422.0 W/m2
13:19 7.9 °F -0.5 °F 30.28 in WNW 11.5 mph 11.5 mph 68% 0.00 in 422.0 W/m2
13:24 7.9 °F -0.5 °F 30.28 in West 11.5 mph 11.5 mph 68% 0.00 in 415.0 W/m2
13:29 8.0 °F -0.1 °F 30.29 in West 8.1 mph 8.1 mph 69% 0.00 in 408.0 W/m2
13:30 8.0 °F -0.1 °F 30.35 in WNW 10.0 mph 10.0 mph 69% 0.00 in 408.0 W/m2
13:31 8.0 °F -0.4 °F 30.29 in WNW 11.5 mph 11.5 mph 68% 0.00 in 406.0 W/m2
13:34 8.1 °F -0.3 °F 30.29 in West 2.3 mph 4.3 mph 68% 0.00 in 401.0 W/m2
13:37 8.0 °F -0.4 °F 30.29 in West 11.5 mph 11.5 mph 68% 0.00 in 396.0 W/m2
13:42 7.8 °F -0.9 °F 30.29 in WNW 11.5 mph 11.5 mph 67% 0.00 in 388.0 W/m2
13:43 7.8 °F -0.9 °F 30.29 in WNW 10.4 mph 10.4 mph 67% 0.00 in 388.0 W/m2
13:48 7.8 °F -0.9 °F 30.29 in West 11.5 mph 11.5 mph 67% 0.00 in 380.0 W/m2
13:49 7.8 °F -0.9 °F 30.29 in West 11.5 mph 11.5 mph 67% 0.00 in 376.0 W/m2
13:50 7.8 °F -0.9 °F 30.29 in WNW 11.5 mph 11.5 mph 67% 0.00 in 374.0 W/m2
13:55 7.8 °F -0.9 °F 30.29 in NW 12.7 mph 12.7 mph 67% 0.00 in 366.0 W/m2
14:00 8.0 °F -0.4 °F 30.29 in WNW 11.5 mph 11.5 mph 68% 0.00 in 357.0 W/m2
14:03 8.0 °F -0.7 °F 30.29 in NW 11.5 mph 11.5 mph 67% 0.00 in 355.0 W/m2
14:08 8.0 °F -0.7 °F 30.29 in West 11.5 mph 11.5 mph 67% 0.00 in 345.0 W/m2
14:09 8.0 °F -0.7 °F 30.30 in West 11.5 mph 11.5 mph 67% 0.00 in 343.0 W/m2
14:12 8.0 °F -0.7 °F 30.36 in West 11.5 mph 11.5 mph 67% 0.00 in 336.0 W/m2
14:13 8.0 °F -0.7 °F 30.30 in West 11.5 mph 11.5 mph 67% 0.00 in 334.0 W/m2
14:18 8.2 °F -0.5 °F 30.30 in NW 11.5 mph 11.5 mph 67% 0.00 in 323.0 W/m2
14:22 8.2 °F -0.5 °F 30.30 in West 8.1 mph 8.1 mph 67% 0.00 in 316.0 W/m2
14:23 8.2 °F -0.5 °F 30.30 in NW 8.1 mph 8.1 mph 67% 0.00 in 313.0 W/m2
14:28 8.3 °F -0.4 °F 30.30 in West 12.7 mph 12.7 mph 67% 0.00 in 302.0 W/m2
14:33 8.2 °F -0.5 °F 30.30 in West 9.0 mph 9.0 mph 67% 0.00 in 292.0 W/m2
14:34 8.3 °F -0.4 °F 30.30 in WNW 11.5 mph 11.5 mph 67% 0.00 in 288.0 W/m2
14:36 8.2 °F -0.5 °F 30.30 in WNW 11.5 mph 11.5 mph 67% 0.00 in 285.0 W/m2
14:37 8.2 °F -0.5 °F 30.30 in NW 13.8 mph 13.8 mph 67% 0.00 in 281.0 W/m2
14:42 8.2 °F -0.5 °F 30.30 in West 11.0 mph 11.0 mph 67% 0.00 in 271.0 W/m2
14:47 8.1 °F -0.6 °F 30.30 in WNW 9.2 mph 9.2 mph 67% 0.00 in 255.0 W/m2
14:51 8.0 °F -0.7 °F 30.30 in West 11.5 mph 11.5 mph 67% 0.00 in 244.0 W/m2
14:56 7.9 °F -0.8 °F 30.30 in WNW 12.7 mph 12.7 mph 67% 0.00 in 227.0 W/m2
14:59 7.8 °F -0.9 °F 30.30 in WNW 11.5 mph 11.5 mph 67% 0.00 in 218.0 W/m2
15:01 7.7 °F -0.7 °F 30.30 in West 11.5 mph 11.5 mph 68% 0.00 in 209.0 W/m2
15:06 7.6 °F -0.8 °F 30.30 in West 12.7 mph 12.7 mph 68% 0.00 in 193.0 W/m2
15:07 7.6 °F -0.8 °F 30.36 in NW 12.7 mph 12.7 mph 68% 0.00 in 193.0 W/m2
15:09 7.5 °F -0.9 °F 30.30 in WNW 11.5 mph 11.5 mph 68% 0.00 in 188.0 W/m2
15:14 7.2 °F -0.8 °F 30.30 in WNW 13.8 mph 13.8 mph 69% 0.00 in 172.0 W/m2
15:21 6.9 °F -1.1 °F 30.30 in NW 11.5 mph 11.5 mph 69% 0.00 in 151.0 W/m2
15:22 6.9 °F -1.1 °F 30.37 in West 10.4 mph 10.4 mph 69% 0.00 in 142.0 W/m2
15:28 6.7 °F -1.0 °F 30.36 in WNW 9.2 mph 9.2 mph 70% 0.00 in 125.0 W/m2
15:29 6.7 °F -1.0 °F 30.37 in WNW 10.4 mph 10.4 mph 70% 0.00 in 125.0 W/m2
15:31 6.6 °F -1.1 °F 30.36 in NW 9.2 mph 9.2 mph 70% 0.00 in 120.0 W/m2
15:32 6.6 °F -1.1 °F 30.36 in NW 8.1 mph 8.1 mph 70% 0.00 in 114.0 W/m2
15:41 6.2 °F -1.5 °F 30.30 in West 10.4 mph 10.4 mph 70% 0.00 in 91.0 W/m2
15:42 6.1 °F -1.6 °F 30.37 in WNW 11.5 mph 11.5 mph 70% 0.00 in 83.0 W/m2
15:43 6.0 °F -1.7 °F 30.37 in West 11.5 mph 11.5 mph 70% 0.00 in 54.0 W/m2
15:44 6.0 °F -1.4 °F 30.30 in WNW 11.5 mph 11.5 mph 71% 0.00 in 40.0 W/m2
15:45 5.9 °F -1.5 °F 30.30 in West 11.5 mph 11.5 mph 71% 0.00 in 32.0 W/m2
15:47 5.8 °F -1.6 °F 30.37 in WNW 11.5 mph 11.5 mph 71% 0.00 in 28.0 W/m2
15:48 5.8 °F -1.6 °F 30.30 in WNW 11.5 mph 11.5 mph 71% 0.00 in 28.0 W/m2
15:49 5.7 °F -1.7 °F 30.37 in WNW 11.5 mph 11.5 mph 71% 0.00 in 28.0 W/m2
15:50 5.6 °F -1.8 °F 30.30 in NW 12.0 mph 12.0 mph 71% 0.00 in 28.0 W/m2
15:54 5.5 °F -1.9 °F 30.30 in NW 11.0 mph 11.0 mph 71% 0.00 in 26.0 W/m2
15:58 5.3 °F -1.8 °F 30.31 in WNW 13.8 mph 13.8 mph 72% 0.00 in 25.0 W/m2
16:01 5.2 °F -1.9 °F 30.31 in WNW 8.1 mph 8.1 mph 72% 0.00 in 23.0 W/m2
16:06 5.0 °F -2.1 °F 30.31 in WNW 11.5 mph 11.5 mph 72% 0.00 in 21.0 W/m2
16:09 4.9 °F -2.2 °F 30.31 in WNW 9.2 mph 9.2 mph 72% 0.00 in 19.0 W/m2
16:13 4.7 °F -2.1 °F 30.31 in West 11.0 mph 11.0 mph 73% 0.00 in 16.0 W/m2
16:17 4.6 °F -2.2 °F 30.31 in WNW 10.0 mph 10.0 mph 73% 0.00 in 12.0 W/m2
16:20 4.5 °F -2.3 °F 30.31 in WNW 9.2 mph 9.2 mph 73% 0.00 in 11.0 W/m2
16:25 4.3 °F -2.4 °F 30.31 in West 9.2 mph 9.2 mph 73% 0.00 in 7.0 W/m2
16:26 4.2 °F -2.5 °F 30.31 in WNW 8.1 mph 8.1 mph 73% 0.00 in 7.0 W/m2
16:31 4.1 °F -2.6 °F 30.31 in WNW 10.4 mph 10.4 mph 73% 0.00 in 5.0 W/m2
16:34 4.0 °F -2.7 °F 30.31 in West 9.2 mph 9.2 mph 73% 0.00 in 0.0 W/m2
16:39 3.8 °F -2.9 °F 30.31 in NW 11.0 mph 11.0 mph 73% 0.00 in 0.0 W/m2
16:40 3.8 °F -2.9 °F 30.31 in WNW 11.5 mph 11.5 mph 73% 0.00 in 0.0 W/m2
16:44 3.7 °F -2.7 °F 30.31 in WNW 10.4 mph 10.4 mph 74% 0.00 in 0.0 W/m2
16:47 3.6 °F -3.1 °F 30.31 in West 9.2 mph 9.2 mph 73% 0.00 in 0.0 W/m2
16:50 3.5 °F -3.2 °F 30.31 in NW 10.4 mph 10.4 mph 73% 0.00 in 0.0 W/m2
16:52 3.4 °F -3.0 °F 30.31 in NW 11.5 mph 11.5 mph 74% 0.00 in 0.0 W/m2
16:58 3.2 °F -3.2 °F 30.31 in WNW 10.4 mph 10.4 mph 74% 0.00 in 0.0 W/m2
16:59 3.2 °F -3.2 °F 30.31 in WNW 9.2 mph 9.2 mph 74% 0.00 in 0.0 W/m2
17:04 3.1 °F -3.3 °F 30.31 in WNW 6.9 mph 6.9 mph 74% 0.00 in 0.0 W/m2
17:05 3.0 °F -3.4 °F 30.31 in WNW 8.1 mph 8.1 mph 74% 0.00 in 0.0 W/m2
17:10 2.9 °F -3.2 °F 30.31 in WNW 11.5 mph 11.5 mph 75% 0.00 in 0.0 W/m2
17:20 2.7 °F -3.4 °F 30.32 in WNW 9.2 mph 9.2 mph 75% 0.00 in 0.0 W/m2
17:21 2.7 °F -3.4 °F 30.32 in NW 10.4 mph 10.4 mph 75% 0.00 in 0.0 W/m2
17:26 2.5 °F -3.6 °F 30.32 in NW 10.4 mph 10.4 mph 75% 0.00 in 0.0 W/m2
17:28 2.4 °F -3.7 °F 30.32 in West 8.1 mph 8.1 mph 75% 0.00 in 0.0 W/m2
17:33 2.3 °F -3.5 °F 30.32 in WNW 8.1 mph 8.1 mph 76% 0.00 in 0.0 W/m2
17:39 2.2 °F -3.6 °F 30.32 in WNW 6.9 mph 6.9 mph 76% 0.00 in 0.0 W/m2
17:40 2.2 °F -3.6 °F 30.32 in WNW 8.1 mph 8.1 mph 76% 0.00 in 0.0 W/m2
17:41 2.1 °F -3.7 °F 30.32 in WNW 7.0 mph 7.0 mph 76% 0.00 in 0.0 W/m2
17:47 1.9 °F -3.9 °F 30.32 in West 8.1 mph 8.1 mph 76% 0.00 in 0.0 W/m2
17:51 1.7 °F -3.8 °F 30.32 in WNW 8.1 mph 8.1 mph 77% 0.00 in 0.0 W/m2
17:53 1.6 °F -3.9 °F 30.32 in NW 8.1 mph 8.1 mph 77% 0.00 in 0.0 W/m2
17:58 1.5 °F -4.0 °F 30.32 in WNW 6.9 mph 6.9 mph 77% 0.00 in 0.0 W/m2
18:03 1.6 °F -3.7 °F 30.32 in WNW 4.6 mph 4.6 mph 78% 0.00 in 0.0 W/m2
18:05 1.6 °F -3.7 °F 30.32 in WNW 9.2 mph 9.2 mph 78% 0.00 in 0.0 W/m2
18:10 1.9 °F -3.4 °F 30.32 in NW 6.9 mph 6.9 mph 78% 0.00 in 0.0 W/m2
18:13 1.8 °F -3.5 °F 30.32 in WNW 9.2 mph 9.2 mph 78% 0.00 in 0.0 W/m2
18:18 1.7 °F -3.6 °F 30.32 in WNW 9.2 mph 9.2 mph 78% 0.00 in 0.0 W/m2
18:24 1.5 °F -4.0 °F 30.32 in WNW 8.1 mph 8.1 mph 77% 0.00 in 0.0 W/m2
18:29 1.5 °F -3.8 °F 30.32 in WNW 11.5 mph 11.5 mph 78% 0.00 in 0.0 W/m2
18:34 1.6 °F -3.7 °F 30.32 in WNW 9.2 mph 9.2 mph 78% 0.00 in 0.0 W/m2
18:35 1.5 °F -3.8 °F 30.32 in WNW 10.4 mph 10.4 mph 78% 0.00 in 0.0 W/m2
18:36 1.6 °F -3.7 °F 30.32 in WNW 9.2 mph 9.2 mph 78% 0.00 in 0.0 W/m2
18:41 1.5 °F -3.8 °F 30.32 in WNW 8.1 mph 8.1 mph 78% 0.00 in 0.0 W/m2
18:46 1.6 °F -3.7 °F 30.32 in West 9.2 mph 9.2 mph 78% 0.00 in 0.0 W/m2
18:47 1.6 °F -3.7 °F 30.32 in WNW 8.1 mph 8.1 mph 78% 0.00 in 0.0 W/m2
18:52 1.5 °F -4.0 °F 30.32 in WNW 9.2 mph 9.2 mph 77% 0.00 in 0.0 W/m2
18:53 1.5 °F -4.0 °F 30.33 in WNW 9.0 mph 9.0 mph 77% 0.00 in 0.0 W/m2
18:58 1.4 °F -3.9 °F 30.33 in WNW 9.2 mph 9.2 mph 78% 0.00 in 0.0 W/m2
19:04 1.4 °F -3.9 °F 30.33 in West 9.2 mph 9.2 mph 78% 0.00 in 0.0 W/m2
19:09 1.1 °F -4.2 °F 30.33 in WNW 8.1 mph 8.1 mph 78% 0.00 in 0.0 W/m2
19:13 1.0 °F -4.3 °F 30.33 in WNW 10.4 mph 10.4 mph 78% 0.00 in 0.0 W/m2
19:18 0.9 °F -4.4 °F 30.32 in WNW 9.2 mph 9.2 mph 78% 0.00 in 0.0 W/m2
19:23 0.9 °F -4.4 °F 30.33 in WNW 10.4 mph 10.4 mph 78% 0.00 in 0.0 W/m2
19:28 1.0 °F -4.3 °F 30.33 in NW 6.0 mph 6.0 mph 78% 0.00 in 0.0 W/m2
19:31 1.0 °F -4.3 °F 30.32 in WNW 6.9 mph 6.9 mph 78% 0.00 in 0.0 W/m2
19:35 0.9 °F -4.4 °F 30.32 in West 6.9 mph 6.9 mph 78% 0.00 in 0.0 W/m2
19:40 0.9 °F -4.4 °F 30.32 in WNW 8.1 mph 8.1 mph 78% 0.00 in 0.0 W/m2
19:45 0.9 °F -4.4 °F 30.32 in WNW 11.5 mph 11.5 mph 78% 0.00 in 0.0 W/m2
19:46 0.9 °F -4.4 °F 30.32 in WNW 11.5 mph 11.5 mph 78% 0.00 in 0.0 W/m2
19:48 0.9 °F -4.4 °F 30.32 in West 9.2 mph 9.2 mph 78% 0.00 in 0.0 W/m2
19:51 0.9 °F -4.4 °F 30.32 in WNW 6.9 mph 6.9 mph 78% 0.00 in 0.0 W/m2
19:54 0.9 °F -4.4 °F 30.33 in WNW 8.1 mph 8.1 mph 78% 0.00 in 0.0 W/m2
19:59 0.8 °F -4.5 °F 30.33 in WNW 8.0 mph 8.0 mph 78% 0.00 in 0.0 W/m2
20:01 0.7 °F -4.6 °F 30.32 in WNW 10.4 mph 10.4 mph 78% 0.00 in 0.0 W/m2
20:06 0.6 °F -4.4 °F 30.32 in NW 10.4 mph 10.4 mph 79% 0.00 in 0.0 W/m2
20:09 0.6 °F -4.4 °F 30.32 in NW 8.1 mph 8.1 mph 79% 0.00 in 0.0 W/m2
20:14 0.5 °F -4.5 °F 30.33 in WNW 8.0 mph 8.0 mph 79% 0.00 in 0.0 W/m2
20:19 0.5 °F -4.5 °F 30.33 in WNW 9.2 mph 9.2 mph 79% 0.00 in 0.0 W/m2
20:25 0.3 °F -4.9 °F 30.33 in WNW 7.0 mph 7.0 mph 78% 0.00 in 0.0 W/m2
20:26 0.3 °F -4.7 °F 30.33 in WNW 6.9 mph 6.9 mph 79% 0.00 in 0.0 W/m2
20:31 0.2 °F -4.8 °F 30.33 in WNW 8.1 mph 8.1 mph 79% 0.00 in 0.0 W/m2
20:32 0.2 °F -4.8 °F 30.33 in WNW 6.9 mph 6.9 mph 79% 0.00 in 0.0 W/m2
20:33 0.2 °F -4.8 °F 30.33 in WNW 5.8 mph 5.8 mph 79% 0.00 in 0.0 W/m2
20:40 0.2 °F -4.8 °F 30.33 in WNW 8.1 mph 8.1 mph 79% 0.00 in 0.0 W/m2
20:45 0.1 °F -4.9 °F 30.33 in WNW 8.1 mph 8.1 mph 79% 0.00 in 0.0 W/m2
20:46 0.1 °F -4.9 °F 30.33 in WNW 9.2 mph 9.2 mph 79% 0.00 in 0.0 W/m2
20:51 0.1 °F -4.9 °F 30.32 in WNW 6.9 mph 6.9 mph 79% 0.00 in 0.0 W/m2
20:53 0.1 °F -4.9 °F 30.33 in WNW 8.1 mph 8.1 mph 79% 0.00 in 0.0 W/m2
20:58 0.0 °F -5.0 °F 30.33 in NW 8.1 mph 8.1 mph 79% 0.00 in 0.0 W/m2
21:01 -0.2 °F -5.2 °F 30.33 in WNW 9.2 mph 9.2 mph 79% 0.00 in 0.0 W/m2
21:07 -0.4 °F -5.4 °F 30.33 in WNW 6.0 mph 6.0 mph 79% 0.00 in 0.0 W/m2
21:09 -0.4 °F -5.4 °F 30.33 in WNW 9.2 mph 9.2 mph 79% 0.00 in 0.0 W/m2
21:14 -0.5 °F -5.5 °F 30.33 in WNW 6.9 mph 6.9 mph 79% 0.00 in 0.0 W/m2
21:18 -0.5 °F -5.5 °F 30.33 in WNW 10.0 mph 10.0 mph 79% 0.00 in 0.0 W/m2
21:19 -0.6 °F -5.3 °F 30.33 in West 10.4 mph 10.4 mph 80% 0.00 in 0.0 W/m2
21:24 -0.7 °F -5.7 °F 30.33 in West 5.8 mph 5.8 mph 79% 0.00 in 0.0 W/m2
21:29 -0.9 °F -5.8 °F 30.33 in WNW 9.2 mph 9.2 mph 79% 0.00 in 0.0 W/m2
21:33 -0.9 °F -5.6 °F 30.33 in WNW 6.9 mph 6.9 mph 80% 0.00 in 0.0 W/m2
21:36 -0.9 °F -5.6 °F 30.33 in WNW 5.8 mph 5.8 mph 80% 0.00 in 0.0 W/m2
21:39 -0.9 °F -5.6 °F 30.33 in WNW 5.8 mph 5.8 mph 80% 0.00 in 0.0 W/m2
21:44 -1.0 °F -5.7 °F 30.34 in WNW 6.9 mph 6.9 mph 80% 0.00 in 0.0 W/m2
21:50 -0.9 °F -5.6 °F 30.34 in West 6.9 mph 6.9 mph 80% 0.00 in 0.0 W/m2
21:55 -0.6 °F -5.0 °F 30.34 in WNW 5.8 mph 5.8 mph 81% 0.00 in 0.0 W/m2
22:00 -0.5 °F -5.2 °F 30.34 in West 6.9 mph 6.9 mph 80% 0.00 in 0.0 W/m2
22:01 -0.6 °F -5.3 °F 30.34 in WNW 6.9 mph 6.9 mph 80% 0.00 in 0.0 W/m2
22:06 -0.8 °F -5.5 °F 30.33 in WNW 3.5 mph 3.5 mph 80% 0.00 in 0.0 W/m2
22:08 -0.8 °F -5.5 °F 30.33 in WNW 6.0 mph 6.0 mph 80% 0.00 in 0.0 W/m2
22:13 -0.9 °F -5.3 °F 30.33 in West 5.8 mph 5.8 mph 81% 0.00 in 0.0 W/m2
22:18 -0.6 °F -5.0 °F 30.34 in WNW 8.1 mph 8.1 mph 81% 0.00 in 0.0 W/m2
22:20 -0.5 °F -4.9 °F 30.34 in West 10.4 mph 10.4 mph 81% 0.00 in 0.0 W/m2
22:25 -0.4 °F -4.8 °F 30.34 in WNW 9.2 mph 9.2 mph 81% 0.00 in 0.0 W/m2
22:28 -0.5 °F -4.9 °F 30.34 in West 9.2 mph 9.2 mph 81% 0.00 in 0.0 W/m2
22:32 -0.7 °F -5.4 °F 30.34 in WNW 8.1 mph 8.1 mph 80% 0.00 in 0.0 W/m2
22:37 -0.9 °F -5.6 °F 30.34 in WNW 9.2 mph 9.2 mph 80% 0.00 in 0.0 W/m2
22:39 -1.0 °F -5.4 °F 30.34 in West 9.0 mph 9.0 mph 81% 0.00 in 0.0 W/m2
22:42 -1.0 °F -5.4 °F 30.34 in WNW 9.2 mph 9.2 mph 81% 0.00 in 0.0 W/m2
22:45 -1.0 °F -5.4 °F 30.34 in WNW 8.1 mph 8.1 mph 81% 0.00 in 0.0 W/m2
22:47 -1.0 °F -5.4 °F 30.34 in WNW 8.1 mph 8.1 mph 81% 0.00 in 0.0 W/m2
22:52 -1.0 °F -5.4 °F 30.34 in WNW 9.2 mph 9.2 mph 81% 0.00 in 0.0 W/m2
22:54 -1.0 °F -5.4 °F 30.34 in WNW 9.2 mph 9.2 mph 81% 0.00 in 0.0 W/m2
22:59 -1.2 °F -5.6 °F 30.34 in WNW 6.9 mph 6.9 mph 81% 0.00 in 0.0 W/m2
23:02 -1.2 °F -5.6 °F 30.35 in West 8.1 mph 8.1 mph 81% 0.00 in 0.0 W/m2
23:03 -1.3 °F -5.7 °F 30.34 in WNW 9.2 mph 9.2 mph 81% 0.00 in 0.0 W/m2
23:08 -1.2 °F -5.6 °F 30.35 in NW 8.0 mph 8.0 mph 81% 0.00 in 0.0 W/m2
23:14 -1.1 °F -5.5 °F 30.35 in WNW 9.2 mph 9.2 mph 81% 0.00 in 0.0 W/m2
23:15 -1.1 °F -5.5 °F 30.35 in WNW 9.2 mph 9.2 mph 81% 0.00 in 0.0 W/m2
23:20 -1.2 °F -5.6 °F 30.34 in WNW 9.2 mph 9.2 mph 81% 0.00 in 0.0 W/m2
23:21 -1.2 °F -5.6 °F 30.34 in West 6.9 mph 6.9 mph 81% 0.00 in 0.0 W/m2
23:26 -1.2 °F -5.6 °F 30.34 in West 8.1 mph 8.1 mph 81% 0.00 in 0.0 W/m2
23:28 -1.2 °F -5.6 °F 30.34 in West 9.2 mph 9.2 mph 81% 0.00 in 0.0 W/m2
23:34 -1.2 °F -5.6 °F 30.34 in NW 11.5 mph 11.5 mph 81% 0.00 in 0.0 W/m2
23:39 -1.2 °F -5.6 °F 30.34 in WNW 9.2 mph 9.2 mph 81% 0.00 in 0.0 W/m2
23:43 -1.2 °F -5.6 °F 30.34 in WNW 8.1 mph 8.1 mph 81% 0.00 in 0.0 W/m2
23:48 -1.3 °F -6.0 °F 30.34 in WNW 8.1 mph 8.1 mph 80% 0.00 in 0.0 W/m2
23:53 -1.4 °F -6.1 °F 30.34 in WNW 5.8 mph 5.8 mph 80% 0.00 in 0.0 W/m2
23:55 -1.4 °F -6.1 °F 30.34 in WNW 6.9 mph 6.9 mph 80% 0.00 in 0.0 W/m2
23:56 -1.5 °F -6.2 °F 30.34 in NW 6.0 mph 6.0 mph 80% 0.00 in 0.0 W/m2
Bourbonnais, Illinois, USA
Compliments of Weather Underground - 4 mb